createdAt,value
2022-11-03T00:01:07.973Z,5.30
2022-11-03T00:03:35.878Z,5.00
2022-11-03T00:06:07.286Z,5.00
2022-11-03T00:08:36.874Z,4.90
2022-11-03T00:11:12.941Z,4.60
2022-11-03T00:13:42.522Z,5.00
2022-11-03T00:16:13.357Z,4.60
2022-11-03T00:18:40.924Z,5.00
2022-11-03T00:21:11.233Z,4.50
2022-11-03T00:23:41.151Z,4.30
2022-11-03T00:26:10.503Z,4.30
2022-11-03T00:28:39.103Z,4.40
2022-11-03T00:31:12.964Z,4.30
2022-11-03T00:33:41.559Z,5.00
2022-11-03T00:36:13.116Z,4.70
2022-11-03T00:38:40.725Z,4.30
2022-11-03T00:41:10.689Z,4.50
2022-11-03T00:43:38.414Z,4.40
2022-11-03T00:46:07.561Z,4.30
2022-11-03T00:48:36.935Z,4.40
2022-11-03T00:51:16.171Z,4.00
2022-11-03T00:53:50.181Z,4.40
2022-11-03T00:56:20.656Z,4.30
2022-11-03T00:58:49.821Z,4.40
2022-11-03T01:01:31.765Z,4.00
2022-11-03T01:04:14.660Z,4.10
2022-11-03T01:06:51.090Z,4.10
2022-11-03T01:09:34.720Z,3.80
2022-11-03T01:12:13.181Z,3.80
2022-11-03T01:14:42.388Z,3.90
2022-11-03T01:17:27.206Z,3.70
2022-11-03T01:19:55.186Z,4.50
2022-11-03T01:22:23.976Z,4.10
2022-11-03T01:24:54.111Z,4.10
2022-11-03T01:27:25.582Z,4.30
2022-11-03T01:29:53.124Z,4.10
2022-11-03T01:32:20.669Z,4.10
2022-11-03T01:34:48.212Z,4.00
2022-11-03T01:37:15.755Z,4.30
2022-11-03T01:39:43.268Z,3.80
2022-11-03T01:42:14.429Z,4.10
2022-11-03T01:44:47.588Z,4.10
2022-11-03T01:47:19.289Z,3.90
2022-11-03T01:49:57.264Z,4.00
2022-11-03T01:52:37.434Z,4.00
2022-11-03T01:55:11.140Z,4.00
2022-11-03T01:57:50.545Z,3.90
2022-11-03T02:00:18.235Z,3.80
2022-11-03T02:02:46.277Z,4.10
2022-11-03T02:05:16.535Z,3.90
2022-11-03T02:07:51.135Z,4.10
2022-11-03T02:10:19.071Z,3.80
2022-11-03T02:12:48.109Z,3.70
2022-11-03T02:15:18.976Z,3.90
2022-11-03T02:17:48.954Z,3.90
2022-11-03T02:20:30.043Z,3.70
2022-11-03T02:23:13.819Z,3.80
2022-11-03T02:25:48.873Z,4.00
2022-11-03T02:28:21.294Z,3.60
2022-11-03T02:31:10.972Z,4.00
2022-11-03T02:33:59.925Z,3.90
2022-11-03T02:36:43.044Z,4.40
2022-11-03T02:41:49.028Z,3.80
2022-11-03T02:44:19.655Z,3.90
2022-11-03T02:46:54.580Z,4.00
2022-11-03T02:49:22.133Z,4.00
2022-11-03T02:51:59.673Z,4.10
2022-11-03T02:54:35.745Z,4.00
2022-11-03T02:57:07.966Z,4.10
2022-11-03T03:00:00.026Z,4.20
2022-11-03T03:02:36.006Z,4.10
2022-11-03T03:05:08.793Z,4.10
2022-11-03T03:07:40.728Z,3.90
2022-11-03T03:10:14.520Z,3.90
2022-11-03T03:12:54.815Z,4.40
2022-11-03T03:15:34.228Z,3.80
2022-11-03T03:18:15.975Z,3.90
2022-11-03T03:21:04.868Z,4.00
2022-11-03T03:23:36.739Z,4.20
2022-11-03T03:26:15.702Z,3.90
2022-11-03T03:29:02.266Z,4.30
2022-11-03T03:31:35.159Z,4.30
2022-11-03T03:34:16.292Z,4.20
2022-11-03T03:36:54.026Z,3.90
2022-11-03T03:39:25.285Z,3.90
2022-11-03T03:41:55.499Z,4.20
2022-11-03T03:44:24.446Z,4.00
2022-11-03T03:46:59.599Z,3.80
2022-11-03T03:49:27.317Z,3.90
2022-11-03T03:51:55.072Z,3.90
2022-11-03T03:54:22.637Z,4.00
2022-11-03T03:57:02.101Z,4.00
2022-11-03T03:59:30.258Z,4.10
2022-11-03T04:01:59.114Z,3.80
2022-11-03T04:04:26.809Z,3.80
2022-11-03T04:07:14.317Z,4.10
2022-11-03T04:09:41.921Z,4.40
2022-11-03T04:12:24.436Z,4.50
2022-11-03T04:15:07.964Z,4.30
2022-11-03T04:17:52.173Z,4.70
2022-11-03T04:20:34.637Z,4.60
2022-11-03T04:23:02.148Z,4.60
2022-11-03T04:25:29.671Z,4.10
2022-11-03T04:27:57.255Z,4.40
2022-11-03T04:30:26.303Z,4.60
2022-11-03T04:32:54.508Z,4.20
2022-11-03T04:35:24.571Z,4.20
2022-11-03T04:37:57.277Z,4.10
2022-11-03T04:40:25.045Z,4.40
2022-11-03T04:42:52.702Z,4.50
2022-11-03T04:45:28.837Z,4.50
2022-11-03T04:47:59.062Z,4.40
2022-11-03T04:50:26.592Z,4.60
2022-11-03T04:53:00.183Z,4.50
2022-11-03T04:55:27.772Z,4.60
2022-11-03T04:58:02.635Z,4.30
2022-11-03T05:00:30.138Z,4.30
2022-11-03T05:02:57.975Z,4.30
2022-11-03T05:05:26.774Z,4.20
2022-11-03T05:07:56.705Z,4.30
2022-11-03T05:10:27.072Z,6.00
2022-11-03T05:12:56.013Z,35.50
2022-11-03T05:15:31.510Z,67.00
2022-11-03T05:18:01.306Z,19.10
2022-11-03T05:20:39.333Z,4.80
2022-11-03T05:23:12.250Z,7.70
2022-11-03T05:25:47.634Z,6.90
2022-11-03T05:28:21.404Z,5.40
2022-11-03T05:30:50.183Z,4.70
2022-11-03T05:33:30.653Z,5.10
2022-11-03T05:36:03.057Z,6.80
2022-11-03T05:38:32.430Z,5.50
2022-11-03T05:41:01.095Z,5.90
2022-11-03T05:43:29.808Z,4.90
2022-11-03T05:46:02.131Z,4.90
2022-11-03T05:48:40.922Z,4.80
2022-11-03T05:51:31.782Z,4.80
2022-11-03T05:54:02.753Z,5.80
2022-11-03T05:56:32.972Z,4.90
2022-11-03T05:59:02.847Z,4.80
2022-11-03T06:01:33.812Z,4.60
2022-11-03T06:04:22.504Z,4.70
2022-11-03T06:06:55.853Z,4.40
2022-11-03T06:09:26.760Z,4.70
2022-11-03T06:11:57.138Z,4.20
2022-11-03T06:14:27.061Z,4.80
2022-11-03T06:16:57.837Z,4.80
2022-11-03T06:19:31.228Z,4.80
2022-11-03T06:22:24.491Z,6.50
2022-11-03T06:25:31.333Z,7.40
2022-11-03T06:28:17.811Z,6.70
2022-11-03T06:30:46.425Z,4.60
2022-11-03T06:33:24.790Z,5.20
2022-11-03T06:35:59.472Z,4.70
2022-11-03T06:38:30.062Z,5.30
2022-11-03T06:40:58.706Z,5.20
2022-11-03T06:43:32.218Z,5.00
2022-11-03T06:46:18.887Z,5.50
2022-11-03T06:48:47.590Z,5.50
2022-11-03T06:51:30.008Z,5.30
2022-11-03T06:53:59.991Z,5.20
2022-11-03T06:56:35.178Z,5.40
2022-11-03T06:59:03.275Z,5.10
2022-11-03T07:01:35.207Z,5.40
2022-11-03T07:04:14.728Z,5.40
2022-11-03T07:06:43.287Z,5.40
2022-11-03T07:09:21.234Z,5.30
2022-11-03T07:11:50.934Z,5.40
2022-11-03T07:14:25.012Z,6.30
2022-11-03T07:16:56.029Z,5.70
2022-11-03T07:19:26.632Z,5.60
2022-11-03T07:22:04.491Z,5.60
2022-11-03T07:24:36.312Z,5.50
2022-11-03T07:27:19.832Z,5.30
2022-11-03T07:29:49.532Z,5.00
2022-11-03T07:32:22.539Z,5.10
2022-11-03T07:34:54.363Z,5.50
2022-11-03T07:37:25.867Z,5.30
2022-11-03T07:39:53.870Z,6.90
2022-11-03T07:42:24.313Z,5.30
2022-11-03T07:44:55.698Z,5.30
2022-11-03T07:47:25.699Z,6.40
2022-11-03T07:49:56.027Z,5.30
2022-11-03T07:52:25.960Z,5.20
2022-11-03T07:54:57.187Z,5.30
2022-11-03T07:57:30.329Z,5.00
2022-11-03T08:00:10.694Z,5.30
2022-11-03T08:02:48.401Z,5.20
2022-11-03T08:05:16.284Z,5.00
2022-11-03T08:07:43.990Z,5.30
2022-11-03T08:10:11.574Z,5.20
2022-11-03T08:12:39.391Z,5.50
2022-11-03T08:15:07.830Z,5.30
2022-11-03T08:17:35.399Z,5.60
2022-11-03T08:20:03.081Z,5.10
2022-11-03T08:22:30.705Z,4.80
2022-11-03T08:24:58.283Z,5.00
2022-11-03T08:27:27.530Z,5.50
2022-11-03T08:29:55.102Z,4.80
2022-11-03T08:32:22.641Z,4.80
2022-11-03T08:34:50.173Z,4.90
2022-11-03T08:37:17.704Z,5.40
2022-11-03T08:39:45.243Z,5.80
2022-11-03T08:42:12.799Z,5.10
2022-11-03T08:44:40.379Z,5.00
2022-11-03T08:47:07.897Z,4.80
2022-11-03T08:49:35.454Z,4.80
2022-11-03T08:52:03.033Z,5.10
2022-11-03T08:54:30.579Z,4.40
2022-11-03T08:56:58.434Z,5.10
2022-11-03T08:59:26.251Z,4.80
2022-11-03T09:01:53.923Z,4.60
2022-11-03T09:04:21.501Z,4.90
2022-11-03T09:06:49.019Z,4.90
2022-11-03T09:12:04.571Z,4.40
2022-11-03T09:14:32.158Z,5.00
2022-11-03T09:16:59.800Z,5.00
2022-11-03T09:19:28.435Z,5.00
2022-11-03T09:21:57.027Z,4.60
2022-11-03T09:24:24.654Z,4.30
2022-11-03T09:26:52.183Z,4.50
2022-11-03T09:29:19.806Z,6.40
2022-11-03T09:31:47.714Z,8.30
2022-11-03T09:34:15.295Z,4.70
2022-11-03T09:36:42.955Z,4.80
2022-11-03T09:39:10.531Z,5.00
2022-11-03T09:41:57.812Z,4.90
2022-11-03T09:44:26.071Z,4.40
2022-11-03T09:46:58.052Z,4.30
2022-11-03T09:49:27.767Z,4.00
2022-11-03T09:51:55.732Z,4.10
2022-11-03T09:54:24.084Z,4.30
2022-11-03T09:56:51.683Z,4.10
2022-11-03T09:59:21.969Z,4.30
2022-11-03T10:01:53.340Z,4.20
2022-11-03T10:04:27.846Z,4.10
2022-11-03T10:06:57.002Z,3.90
2022-11-03T10:09:26.156Z,4.20
2022-11-03T10:11:55.070Z,4.20
2022-11-03T10:14:23.143Z,4.00
2022-11-03T10:17:00.034Z,4.20
2022-11-03T10:19:28.072Z,3.90
2022-11-03T10:21:55.791Z,4.10
2022-11-03T10:24:25.258Z,5.00
2022-11-03T10:26:56.859Z,3.90
2022-11-03T10:29:27.522Z,3.80
2022-11-03T10:31:59.446Z,4.20
2022-11-03T10:34:34.942Z,4.00
2022-11-03T10:37:23.209Z,3.70
2022-11-03T10:39:55.510Z,3.90
2022-11-03T10:42:35.409Z,3.90
2022-11-03T10:45:15.297Z,3.80
2022-11-03T10:47:43.293Z,3.50
2022-11-03T10:50:27.566Z,3.60
2022-11-03T10:52:56.301Z,3.90
2022-11-03T10:55:26.248Z,3.40
2022-11-03T10:57:57.958Z,3.60
2022-11-03T11:00:25.666Z,3.50
2022-11-03T11:02:59.235Z,3.70
2022-11-03T11:07:55.345Z,3.30
2022-11-03T11:10:25.318Z,3.70
2022-11-03T11:13:25.561Z,3.50
2022-11-03T11:15:55.685Z,3.70
2022-11-03T11:18:29.587Z,6.60
2022-11-03T11:21:01.786Z,4.60
2022-11-03T11:23:29.312Z,4.10
2022-11-03T11:26:14.478Z,4.50
2022-11-03T11:28:43.012Z,3.70
2022-11-03T11:31:26.512Z,3.60
2022-11-03T11:34:10.352Z,3.80
2022-11-03T11:36:42.688Z,3.70
2022-11-03T11:39:32.028Z,3.70
2022-11-03T11:42:20.928Z,3.70
2022-11-03T11:44:56.708Z,4.00
2022-11-03T11:47:33.788Z,3.50
2022-11-03T11:50:07.134Z,3.60
2022-11-03T11:52:38.410Z,3.40
2022-11-03T11:55:06.783Z,3.60
2022-11-03T11:57:35.084Z,3.00
2022-11-03T12:00:03.011Z,3.50
2022-11-03T12:02:39.825Z,3.30
2022-11-03T12:05:19.586Z,3.30
2022-11-03T12:07:50.997Z,3.20
2022-11-03T12:13:02.715Z,3.40
2022-11-03T12:15:56.189Z,3.10
2022-11-03T12:18:49.353Z,3.60
2022-11-03T12:21:46.326Z,3.20
2022-11-03T12:24:36.151Z,3.50
2022-11-03T12:27:18.587Z,4.00
2022-11-03T12:29:46.410Z,3.30
2022-11-03T12:32:32.566Z,3.50
2022-11-03T12:35:02.995Z,3.60
2022-11-03T12:37:30.628Z,3.00
2022-11-03T12:39:58.168Z,2.80
2022-11-03T12:42:25.979Z,3.20
2022-11-03T12:44:53.783Z,3.20
2022-11-03T12:47:21.365Z,3.10
2022-11-03T12:49:49.375Z,3.00
2022-11-03T12:52:16.985Z,3.30
2022-11-03T12:54:44.565Z,3.30
2022-11-03T12:57:12.197Z,3.10
2022-11-03T12:59:40.560Z,3.20
2022-11-03T13:02:10.550Z,3.00
2022-11-03T13:04:39.091Z,2.80
2022-11-03T13:07:06.657Z,3.00
2022-11-03T13:09:35.754Z,2.70
2022-11-03T13:12:18.441Z,3.20
2022-11-03T13:14:47.841Z,3.30
2022-11-03T13:17:16.269Z,3.20
2022-11-03T13:19:43.798Z,3.30
2022-11-03T13:22:11.384Z,2.80
2022-11-03T13:24:38.922Z,3.60
2022-11-03T13:27:06.485Z,3.50
2022-11-03T13:29:35.897Z,3.50
2022-11-03T13:32:04.738Z,3.30
2022-11-03T13:34:32.326Z,3.20
2022-11-03T13:37:00.409Z,3.20
2022-11-03T13:39:28.226Z,3.40
2022-11-03T13:41:55.795Z,3.50
2022-11-03T13:44:23.303Z,3.40
2022-11-03T13:46:51.139Z,3.40
2022-11-03T13:52:09.782Z,3.60
2022-11-03T14:00:16.965Z,3.40
2022-11-03T14:05:32.416Z,3.60
2022-11-03T14:07:59.972Z,3.80
2022-11-03T14:10:27.693Z,3.70
2022-11-03T14:12:56.348Z,3.20
2022-11-03T14:15:23.898Z,3.70
2022-11-03T14:17:51.690Z,3.30
2022-11-03T14:20:19.414Z,3.10
2022-11-03T14:22:47.116Z,3.20
2022-11-03T14:25:14.675Z,3.50
2022-11-03T14:27:42.700Z,3.40
2022-11-03T14:30:11.599Z,3.60
2022-11-03T14:32:39.286Z,3.60
2022-11-03T14:35:07.657Z,3.80
2022-11-03T14:37:35.467Z,3.50
2022-11-03T14:40:04.036Z,3.90
2022-11-03T14:42:31.571Z,4.00
2022-11-03T14:44:59.086Z,3.90
2022-11-03T14:47:27.561Z,4.20
2022-11-03T14:49:55.076Z,4.10
2022-11-03T14:52:22.651Z,4.00
2022-11-03T14:54:52.048Z,3.80
2022-11-03T14:57:19.571Z,3.50
2022-11-03T14:59:52.209Z,3.70
2022-11-03T15:02:21.141Z,3.70
2022-11-03T15:04:48.808Z,3.40
2022-11-03T15:07:16.349Z,3.70
2022-11-03T15:09:43.919Z,4.10
2022-11-03T15:12:11.450Z,4.80
2022-11-03T15:14:38.986Z,5.60
2022-11-03T15:17:06.569Z,7.00
2022-11-03T15:19:34.325Z,4.80
2022-11-03T15:22:01.836Z,4.30
2022-11-03T15:27:17.284Z,6.00
2022-11-03T15:29:45.046Z,5.30
2022-11-03T15:32:12.623Z,4.80
2022-11-03T15:34:40.150Z,4.20
2022-11-03T15:37:07.684Z,3.80
2022-11-03T15:39:35.177Z,3.60
2022-11-03T15:42:02.795Z,4.00
2022-11-03T15:44:30.372Z,4.40
2022-11-03T15:46:57.932Z,4.80
2022-11-03T15:49:25.636Z,4.20
2022-11-03T15:51:53.157Z,4.80
2022-11-03T15:54:20.716Z,4.50
2022-11-03T15:56:48.499Z,4.20
2022-11-03T15:59:16.064Z,4.00
2022-11-03T16:01:43.753Z,4.00
2022-11-03T16:04:11.501Z,3.70
2022-11-03T16:07:07.464Z,4.10
2022-11-03T16:09:26.568Z,4.70
2022-11-03T16:11:54.061Z,4.80
2022-11-03T16:14:21.646Z,5.30
2022-11-03T16:16:49.162Z,4.30
2022-11-03T16:19:16.922Z,5.10
2022-11-03T16:21:44.759Z,5.20
2022-11-03T16:24:12.283Z,5.80
2022-11-03T16:26:39.992Z,6.50
2022-11-03T16:29:07.524Z,5.70
2022-11-03T16:31:35.885Z,4.50
2022-11-03T16:34:04.680Z,4.30
2022-11-03T16:36:32.217Z,4.30
2022-11-03T16:38:59.761Z,4.90
2022-11-03T16:41:27.276Z,5.80
2022-11-03T16:43:54.779Z,5.90
2022-11-03T16:46:22.420Z,6.70
2022-11-03T16:48:50.040Z,6.90
2022-11-03T16:51:17.983Z,6.30
2022-11-03T16:53:45.516Z,5.30
2022-11-03T16:56:13.724Z,8.00
2022-11-03T16:58:41.327Z,6.20
2022-11-03T17:01:09.110Z,4.90
2022-11-03T17:03:36.761Z,4.90
2022-11-03T17:06:04.487Z,5.20
2022-11-03T17:08:51.993Z,6.20
2022-11-03T17:11:35.888Z,100.90
2022-11-03T17:14:13.152Z,72.50
2022-11-03T17:16:45.181Z,63.40
2022-11-03T17:19:13.614Z,23.80
2022-11-03T17:21:41.374Z,14.80
2022-11-03T17:24:11.074Z,8.30
2022-11-03T17:26:56.030Z,6.60
2022-11-03T17:29:37.339Z,6.50
2022-11-03T17:32:35.860Z,8.70
2022-11-03T17:35:45.689Z,10.00
2022-11-03T17:38:17.538Z,16.30
2022-11-03T17:40:47.014Z,11.80
2022-11-03T17:43:21.189Z,9.00
2022-11-03T17:45:48.890Z,21.40
2022-11-03T17:48:17.323Z,29.70
2022-11-03T17:50:48.161Z,23.00
2022-11-03T17:53:31.965Z,22.60
2022-11-03T17:56:29.479Z,21.30
2022-11-03T17:58:49.870Z,20.80
2022-11-03T18:01:24.469Z,21.90
2022-11-03T18:03:52.633Z,20.00
2022-11-03T18:06:21.923Z,15.70
2022-11-03T18:12:56.883Z,36.00
2022-11-03T18:15:25.913Z,15.90
2022-11-03T18:17:53.474Z,11.80
2022-11-03T18:20:25.974Z,12.40
2022-11-03T18:22:57.733Z,15.80
2022-11-03T18:25:25.273Z,11.90
2022-11-03T18:27:52.791Z,21.10
2022-11-03T18:30:20.326Z,17.10
2022-11-03T18:32:48.951Z,14.10
2022-11-03T18:35:22.882Z,14.50
2022-11-03T18:40:20.185Z,26.70
2022-11-03T18:42:47.910Z,31.20
2022-11-03T18:45:18.615Z,20.60
2022-11-03T18:47:46.189Z,18.60
2022-11-03T18:50:16.297Z,22.70
2022-11-03T18:52:51.934Z,16.80
2022-11-03T18:55:19.535Z,35.40
2022-11-03T18:57:47.192Z,22.70
2022-11-03T19:00:20.821Z,12.70
2022-11-03T19:02:50.397Z,14.20
2022-11-03T19:05:19.046Z,12.10
2022-11-03T19:07:49.872Z,16.00
2022-11-03T19:10:22.215Z,20.90
2022-11-03T19:12:49.768Z,19.70
2022-11-03T19:15:21.445Z,16.50
2022-11-03T19:17:52.544Z,12.10
2022-11-03T19:20:20.447Z,10.80
2022-11-03T19:22:48.006Z,14.00
2022-11-03T19:25:15.896Z,9.70
2022-11-03T19:27:46.330Z,11.80
2022-11-03T19:30:18.025Z,11.40
2022-11-03T19:32:48.628Z,8.90
2022-11-03T19:35:35.332Z,9.40
2022-11-03T19:38:12.263Z,10.10
2022-11-03T19:41:03.809Z,9.00
2022-11-03T19:43:34.777Z,8.40
2022-11-03T19:46:04.686Z,9.40
2022-11-03T19:48:34.148Z,8.10
2022-11-03T19:51:04.110Z,7.90
2022-11-03T19:53:33.146Z,8.00
2022-11-03T19:56:01.419Z,7.70
2022-11-03T19:58:29.505Z,7.00
2022-11-03T20:00:57.147Z,7.00
2022-11-03T20:03:25.166Z,7.10
2022-11-03T20:05:56.477Z,7.60
2022-11-03T20:08:27.579Z,8.60
2022-11-03T20:10:55.905Z,8.30
2022-11-03T20:13:26.238Z,8.70
2022-11-03T20:16:00.766Z,7.80
2022-11-03T20:18:29.269Z,7.50
2022-11-03T20:20:58.222Z,8.20
2022-11-03T20:23:30.262Z,8.20
2022-11-03T20:25:58.537Z,7.60
2022-11-03T20:28:28.871Z,6.70
2022-11-03T20:30:57.203Z,6.80
2022-11-03T20:33:25.516Z,6.90
2022-11-03T20:35:54.575Z,6.80
2022-11-03T20:38:24.878Z,6.50
2022-11-03T20:40:58.829Z,6.50
2022-11-03T20:43:45.800Z,7.90
2022-11-03T20:46:36.556Z,7.30
2022-11-03T20:49:04.350Z,7.60
2022-11-03T20:51:35.066Z,7.70
2022-11-03T20:54:11.245Z,6.30
2022-11-03T20:56:38.828Z,6.20
2022-11-03T20:59:06.360Z,6.30
2022-11-03T21:01:34.257Z,6.20
2022-11-03T21:04:03.111Z,6.80
2022-11-03T21:06:32.319Z,6.60
2022-11-03T21:08:59.956Z,12.40
2022-11-03T21:11:33.818Z,14.70
2022-11-03T21:14:07.787Z,34.80
2022-11-03T21:16:51.382Z,20.30
2022-11-03T21:19:37.656Z,8.60
2022-11-03T21:22:45.851Z,12.30
2022-11-03T21:25:17.228Z,14.90
2022-11-03T21:27:45.612Z,11.30
2022-11-03T21:30:15.486Z,9.80
2022-11-03T21:32:43.484Z,7.60
2022-11-03T21:35:14.884Z,12.30
2022-11-03T21:37:42.450Z,50.90
2022-11-03T21:40:10.983Z,29.50
2022-11-03T21:42:54.546Z,11.60
2022-11-03T21:45:22.093Z,11.00
2022-11-03T21:48:11.817Z,12.00
2022-11-03T21:50:41.134Z,24.40
2022-11-03T21:53:09.414Z,14.50
2022-11-03T21:55:37.381Z,10.90
2022-11-03T21:58:05.311Z,13.90
2022-11-03T22:00:33.766Z,12.00
2022-11-03T22:03:01.628Z,11.80
2022-11-03T22:05:29.424Z,8.60
2022-11-03T22:07:56.993Z,8.00
2022-11-03T22:10:24.728Z,11.90
2022-11-03T22:12:52.385Z,6.90
2022-11-03T22:15:35.917Z,6.80
2022-11-03T22:18:06.061Z,7.20
2022-11-03T22:20:52.246Z,7.90
2022-11-03T22:23:35.805Z,7.70
2022-11-03T22:26:20.300Z,7.50
2022-11-03T22:29:07.825Z,6.80
2022-11-03T22:31:41.303Z,7.80
2022-11-03T22:34:26.233Z,10.40
2022-11-03T22:36:54.066Z,6.60
2022-11-03T22:39:37.838Z,7.00
2022-11-03T22:42:20.449Z,6.60
2022-11-03T22:45:03.991Z,8.10
2022-11-03T22:47:31.606Z,7.10
2022-11-03T22:49:59.127Z,7.60
2022-11-03T22:52:26.622Z,7.70
2022-11-03T22:54:54.126Z,6.70
2022-11-03T22:57:21.640Z,7.80
2022-11-03T22:59:49.271Z,7.20
2022-11-03T23:02:16.910Z,9.00
2022-11-03T23:04:46.300Z,7.30
2022-11-03T23:07:13.846Z,8.30
2022-11-03T23:09:41.439Z,7.20
2022-11-03T23:12:08.986Z,6.40
2022-11-03T23:14:52.541Z,7.10
2022-11-03T23:17:40.616Z,6.50
2022-11-03T23:20:29.196Z,5.80
2022-11-03T23:22:57.830Z,6.10
2022-11-03T23:25:25.355Z,6.50
2022-11-03T23:27:52.957Z,6.30
2022-11-03T23:30:20.573Z,7.00
2022-11-03T23:32:48.115Z,6.60
2022-11-03T23:35:16.851Z,6.10
2022-11-03T23:37:44.386Z,7.20
2022-11-03T23:40:15.923Z,6.30
2022-11-03T23:42:46.459Z,6.70
2022-11-03T23:45:40.440Z,8.90
2022-11-03T23:48:34.237Z,7.00
2022-11-03T23:51:01.740Z,6.80
2022-11-03T23:53:29.506Z,6.60
2022-11-03T23:56:16.050Z,6.60
2022-11-03T23:58:43.868Z,6.60
